Time;durP1;ratioP1;P1;durP2;ratioP2;P2;SDS_P1;SDS_P2;PMS_P1;PMS_P2;Temp;Humidity;BMP_temperature;BMP_pressure;BME280_temperature;BME280_humidity;BME280_pressure;Samples;Min_cycle;Max_cycle;Signal;HPM_P1;HPM_P2
2022/11/28 00:03:11;;;;;;;22.85;20.33;;;;;;;;;;9991004;28;20494;-65
2022/11/28 00:08:05;;;;;;;24.85;20.80;;;;;;;;;;9990869;28;20042;-65
2022/11/28 00:12:58;;;;;;;21.98;19.30;;;;;;;;;;9990396;28;20050;-65
2022/11/28 00:17:52;;;;;;;23.75;19.65;;;;;;;;;;9990605;28;20046;-65
2022/11/28 00:22:46;;;;;;;23.02;17.75;;;;;;;;;;9989906;28;20078;-65
2022/11/28 00:27:40;;;;;;;23.38;19.08;;;;;;;;;;9990483;28;20128;-65
2022/11/28 00:32:34;;;;;;;21.80;19.60;;;;;;;;;;9969694;28;20450;-65
2022/11/28 00:37:27;;;;;;;21.88;19.52;;;;;;;;;;9970847;28;20062;-65
2022/11/28 00:42:21;;;;;;;22.70;19.67;;;;;;;;;;9989455;28;20053;-65
2022/11/28 00:47:15;;;;;;;24.00;19.83;;;;;;;;;;9988957;28;20100;-65
2022/11/28 00:52:08;;;;;;;27.13;22.52;;;;;;;;;;9989278;28;20050;-65
2022/11/28 00:57:01;;;;;;;25.80;22.15;;;;;;;;;;9988872;28;20046;-65
2022/11/28 01:01:55;;;;;;;26.77;21.85;;;;;;;;;;9988805;28;20050;-65
2022/11/28 01:06:49;;;;;;;24.70;21.48;;;;;;;;;;9988711;28;20058;-65
2022/11/28 01:11:44;;;;;;;25.83;22.60;;;;;;;;;;9989028;28;20481;-65
2022/11/28 01:16:38;;;;;;;23.67;21.05;;;;;;;;;;9988458;28;20057;-65
2022/11/28 01:21:33;;;;;;;24.40;21.80;;;;;;;;;;9988429;28;20054;-65
2022/11/28 01:26:29;;;;;;;30.23;20.55;;;;;;;;;;9986102;28;20065;-65
2022/11/28 01:31:24;;;;;;;22.20;18.25;;;;;;;;;;9988289;28;20559;-64
2022/11/28 01:36:18;;;;;;;21.30;18.60;;;;;;;;;;9988127;28;20046;-64
2022/11/28 01:41:13;;;;;;;25.92;19.30;;;;;;;;;;9988201;28;20055;-64
2022/11/28 01:46:06;;;;;;;24.60;21.95;;;;;;;;;;9987386;28;20050;-64
2022/11/28 01:51:02;;;;;;;24.70;20.63;;;;;;;;;;9987843;28;20046;-64
2022/11/28 01:56:00;;;;;;;23.70;21.33;;;;;;;;;;9972455;28;20050;-65
2022/11/28 02:00:53;;;;;;;21.40;19.17;;;;;;;;;;9995258;28;20493;-64
2022/11/28 02:05:46;;;;;;;22.35;19.92;;;;;;;;;;9995416;28;20054;-64
2022/11/28 02:10:45;;;;;;;22.45;20.15;;;;;;;;;;9977837;28;20050;-65
2022/11/28 02:16:12;;;;;;;23.63;20.77;;;;;;;;;;9994599;28;20046;-65
2022/11/28 02:21:15;;;;;;;21.85;19.60;;;;;;;;;;9994638;28;20065;-65
2022/11/28 02:26:32;;;;;;;20.48;17.48;;;;;;;;;;9994550;28;20476;-64
2022/11/28 02:31:37;;;;;;;22.45;20.05;;;;;;;;;;9994625;28;20153;-65
2022/11/28 02:36:40;;;;;;;24.48;19.23;;;;;;;;;;9994596;28;20062;-64
2022/11/28 02:41:43;;;;;;;22.50;20.10;;;;;;;;;;9994147;28;20046;-64
2022/11/28 02:47:15;;;;;;;21.23;17.48;;;;;;;;;;9976944;28;20418;-65
2022/11/28 02:52:18;;;;;;;20.73;17.33;;;;;;;;;;9872189;28;20046;-65
2022/11/28 02:57:11;;;;;;;21.52;18.13;;;;;;;;;;9993472;28;20062;-65
2022/11/28 03:02:29;;;;;;;23.95;18.60;;;;;;;;;;9993254;28;20093;-64
2022/11/28 03:07:37;;;;;;;27.40;20.00;;;;;;;;;;9972390;28;20065;-64
2022/11/28 03:12:46;;;;;;;23.92;19.80;;;;;;;;;;9992728;28;20133;-64
2022/11/28 03:18:01;;;;;;;24.52;21.73;;;;;;;;;;9992493;28;20050;-64
2022/11/28 03:23:20;;;;;;;27.35;21.27;;;;;;;;;;9992238;28;20046;-65
2022/11/28 03:28:26;;;;;;;22.77;19.60;;;;;;;;;;9992439;28;20058;-64
2022/11/28 03:33:22;;;;;;;23.75;19.80;;;;;;;;;;9991864;28;20133;-64
2022/11/28 03:38:20;;;;;;;22.65;20.25;;;;;;;;;;9991884;28;20057;-65
2022/11/28 03:43:18;;;;;;;22.92;20.08;;;;;;;;;;9991749;28;20058;-64
2022/11/28 03:48:31;;;;;;;21.83;19.63;;;;;;;;;;9991924;28;20042;-65
2022/11/28 03:53:35;;;;;;;22.95;19.38;;;;;;;;;;9971665;28;20050;-65
2022/11/28 03:58:45;;;;;;;20.73;18.55;;;;;;;;;;9974266;28;20062;-64
2022/11/28 04:03:57;;;;;;;23.13;19.60;;;;;;;;;;9991098;28;20052;-65
2022/11/28 04:09:18;;;;;;;27.85;19.77;;;;;;;;;;9973435;28;20113;-64
2022/11/28 04:14:28;;;;;;;22.95;17.80;;;;;;;;;;9964303;28;20066;-65
2022/11/28 04:19:27;;;;;;;21.23;16.83;;;;;;;;;;9972985;28;20514;-65
2022/11/28 04:24:50;;;;;;;19.80;16.63;;;;;;;;;;9972689;28;20509;-64
2022/11/28 04:29:46;;;;;;;23.83;18.63;;;;;;;;;;9987400;28;20042;-64
2022/11/28 04:34:43;;;;;;;19.60;17.30;;;;;;;;;;9973193;28;20509;-65
2022/11/28 04:39:38;;;;;;;21.75;19.40;;;;;;;;;;9972794;28;20488;-65
2022/11/28 04:44:52;;;;;;;20.65;16.50;;;;;;;;;;9964103;28;20061;-65
2022/11/28 04:49:46;;;;;;;20.15;17.15;;;;;;;;;;9987769;28;20053;-64
2022/11/28 04:54:57;;;;;;;19.20;16.85;;;;;;;;;;9988675;28;20613;-65
2022/11/28 04:59:51;;;;;;;21.35;17.98;;;;;;;;;;9989245;28;20050;-64
2022/11/28 05:04:46;;;;;;;22.60;17.55;;;;;;;;;;9988962;28;20058;-65
2022/11/28 05:09:40;;;;;;;21.00;17.77;;;;;;;;;;9971404;28;20414;-65
2022/11/28 05:14:34;;;;;;;22.38;19.98;;;;;;;;;;9988464;28;20066;-65
2022/11/28 05:19:28;;;;;;;21.33;19.10;;;;;;;;;;9987888;28;20060;-65
2022/11/28 05:24:22;;;;;;;22.55;17.20;;;;;;;;;;9988073;28;20105;-65
2022/11/28 05:29:24;;;;;;;17.92;15.95;;;;;;;;;;9987970;28;20505;-65
2022/11/28 05:34:17;;;;;;;18.88;16.27;;;;;;;;;;9988124;28;20076;-65
2022/11/28 05:39:11;;;;;;;17.45;15.32;;;;;;;;;;9988004;28;20505;-65
2022/11/28 05:44:06;;;;;;;16.60;14.15;;;;;;;;;;9987453;28;20524;-65
2022/11/28 05:49:00;;;;;;;18.45;15.73;;;;;;;;;;9987846;28;20093;-65
2022/11/28 05:53:53;;;;;;;16.50;14.77;;;;;;;;;;9987163;28;20054;-65
2022/11/28 05:58:48;;;;;;;16.02;14.48;;;;;;;;;;9987302;28;20129;-65
2022/11/28 06:03:43;;;;;;;17.33;15.32;;;;;;;;;;9988113;28;20054;-66
2022/11/28 06:08:36;;;;;;;19.40;13.57;;;;;;;;;;9964917;28;20449;-65
2022/11/28 06:13:30;;;;;;;17.23;14.30;;;;;;;;;;9987415;28;20145;-65
2022/11/28 06:18:25;;;;;;;19.40;14.63;;;;;;;;;;9986030;28;20113;-65
2022/11/28 06:23:23;;;;;;;21.17;18.35;;;;;;;;;;9985846;28;20557;-67
2022/11/28 06:28:16;;;;;;;22.33;18.55;;;;;;;;;;9986025;28;20059;-66
2022/11/28 06:33:10;;;;;;;18.52;15.35;;;;;;;;;;9986964;28;20406;-67
2022/11/28 06:38:05;;;;;;;21.05;16.88;;;;;;;;;;9986033;28;20108;-68
2022/11/28 06:43:05;;;;;;;22.92;16.10;;;;;;;;;;9989962;28;20046;-67
2022/11/28 06:48:00;;;;;;;27.17;21.15;;;;;;;;;;9992636;28;20062;-67
2022/11/28 06:52:54;;;;;;;18.38;16.33;;;;;;;;;;9993656;28;20050;-66
2022/11/28 06:57:49;;;;;;;18.85;16.17;;;;;;;;;;9992611;28;20050;-67
2022/11/28 07:02:43;;;;;;;21.50;15.18;;;;;;;;;;9992966;28;20125;-66
2022/11/28 07:07:37;;;;;;;22.33;19.10;;;;;;;;;;9993592;28;20051;-66
2022/11/28 07:12:45;;;;;;;23.50;18.30;;;;;;;;;;9986290;28;20050;-66
2022/11/28 07:17:39;;;;;;;25.08;19.58;;;;;;;;;;9992205;28;20051;-66
2022/11/28 07:22:33;;;;;;;21.73;19.25;;;;;;;;;;9992080;28;20058;-66
2022/11/28 07:27:27;;;;;;;23.35;19.75;;;;;;;;;;9992976;28;20061;-66
2022/11/28 07:32:22;;;;;;;23.58;20.27;;;;;;;;;;9992889;28;20408;-65
2022/11/28 07:37:15;;;;;;;22.02;19.33;;;;;;;;;;9992980;28;20522;-66
2022/11/28 07:42:09;;;;;;;23.92;19.95;;;;;;;;;;9988321;28;20042;-66
2022/11/28 07:47:04;;;;;;;25.83;19.05;;;;;;;;;;9988029;28;20050;-66
2022/11/28 07:51:57;;;;;;;22.08;19.80;;;;;;;;;;9988111;28;20523;-66
2022/11/28 07:56:52;;;;;;;27.55;22.50;;;;;;;;;;9989716;28;20101;-66
2022/11/28 08:02:05;;;;;;;28.10;19.90;;;;;;;;;;9991149;28;20101;-66
2022/11/28 08:06:59;;;;;;;31.05;19.35;;;;;;;;;;9991395;28;20057;-66
2022/11/28 08:11:52;;;;;;;22.40;19.73;;;;;;;;;;9991120;28;20050;-66
2022/11/28 08:16:46;;;;;;;26.95;21.67;;;;;;;;;;9990934;28;20054;-66
2022/11/28 08:21:39;;;;;;;31.98;21.45;;;;;;;;;;9990448;28;20560;-66
2022/11/28 08:26:33;;;;;;;28.02;21.83;;;;;;;;;;9990378;28;20081;-66
2022/11/28 08:31:32;;;;;;;30.27;23.33;;;;;;;;;;9990330;28;20062;-65
2022/11/28 08:36:26;;;;;;;;;;;;;;;;;;9990245;28;20055;-66
2022/11/28 08:41:23;;;;;;;31.83;26.50;;;;;;;;;;9989815;28;20009;-66
2022/11/28 08:46:19;;;;;;;35.10;26.83;;;;;;;;;;9989345;28;20104;-66
2022/11/28 08:51:15;;;;;;;23.05;19.45;;;;;;;;;;9989641;28;20054;-66
2022/11/28 08:56:10;;;;;;;23.48;20.30;;;;;;;;;;9989634;28;20077;-66
2022/11/28 09:01:04;;;;;;;25.67;22.95;;;;;;;;;;9989112;28;20046;-66
2022/11/28 09:06:01;;;;;;;28.50;20.75;;;;;;;;;;9988390;28;20452;-66
2022/11/28 09:10:55;;;;;;;33.78;22.05;;;;;;;;;;9988715;28;20050;-66
2022/11/28 09:15:48;;;;;;;29.85;24.10;;;;;;;;;;9988462;28;20413;-66
2022/11/28 09:20:46;;;;;;;26.65;23.67;;;;;;;;;;9988891;28;20065;-66
2022/11/28 09:25:40;;;;;;;41.47;28.92;;;;;;;;;;9988746;28;20477;-66
2022/11/28 09:30:34;;;;;;;30.55;25.95;;;;;;;;;;9988143;28;20118;-66
2022/11/28 09:35:28;;;;;;;34.70;27.33;;;;;;;;;;9988104;28;20134;-66
2022/11/28 09:40:39;;;;;;;44.83;33.13;;;;;;;;;;9988314;28;20073;-66
2022/11/28 09:45:34;;;;;;;57.15;36.08;;;;;;;;;;9987648;28;20061;-66
2022/11/28 09:50:34;;;;;;;44.22;34.22;;;;;;;;;;9971252;28;20042;-66
2022/11/28 09:55:40;;;;;;;43.70;33.15;;;;;;;;;;9987678;28;20053;-66
2022/11/28 10:01:03;;;;;;;44.42;37.85;;;;;;;;;;9983646;28;20074;-66
2022/11/28 10:06:27;;;;;;;43.15;33.38;;;;;;;;;;9907081;28;20138;-66
2022/11/28 10:11:32;;;;;;;39.92;34.33;;;;;;;;;;9986232;28;20513;-66
2022/11/28 10:17:02;;;;;;;42.20;33.08;;;;;;;;;;9988306;28;20101;-66
2022/11/28 10:21:59;;;;;;;37.22;30.40;;;;;;;;;;9995704;28;20054;-66
2022/11/28 10:26:57;;;;;;;44.75;31.48;;;;;;;;;;9995532;28;20058;-66
2022/11/28 10:31:54;;;;;;;37.53;30.75;;;;;;;;;;9994877;28;20066;-66
2022/11/28 10:37:00;;;;;;;33.13;29.55;;;;;;;;;;9993596;28;20138;-66
2022/11/28 10:42:55;;;;;;;36.45;28.20;;;;;;;;;;9994614;28;20082;-66
2022/11/28 10:48:13;;;;;;;39.55;25.42;;;;;;;;;;9992223;28;20501;-66
2022/11/28 10:54:09;;;;;;;35.70;27.48;;;;;;;;;;9994223;28;20222;-66
2022/11/28 10:59:13;;;;;;;32.97;26.60;;;;;;;;;;9985297;28;20401;-66
2022/11/28 11:04:19;;;;;;;32.92;29.17;;;;;;;;;;9993860;28;20447;-66
2022/11/28 11:09:13;;;;;;;35.35;30.40;;;;;;;;;;9991762;28;20078;-66
2022/11/28 11:14:11;;;;;;;32.63;29.08;;;;;;;;;;9989358;28;20058;-67
2022/11/28 11:19:05;;;;;;;31.98;27.40;;;;;;;;;;9991728;28;20429;-66
2022/11/28 11:24:17;;;;;;;35.08;29.00;;;;;;;;;;9990380;28;20157;-67
2022/11/28 11:29:40;;;;;;;32.35;26.08;;;;;;;;;;9991204;28;20046;-66
2022/11/28 11:34:41;;;;;;;34.20;28.70;;;;;;;;;;9971843;28;20053;-69
2022/11/28 11:39:48;;;;;;;34.28;28.88;;;;;;;;;;9972468;28;20043;-68
2022/11/28 11:44:42;;;;;;;32.75;27.60;;;;;;;;;;9973552;28;20050;-68
2022/11/28 11:49:40;;;;;;;32.28;28.67;;;;;;;;;;9990939;28;20414;-69
2022/11/28 11:54:35;;;;;;;34.53;29.20;;;;;;;;;;9991525;28;20137;-69
2022/11/28 11:59:30;;;;;;;40.70;30.60;;;;;;;;;;9991610;28;20508;-69
2022/11/28 12:04:38;;;;;;;35.80;30.08;;;;;;;;;;9991732;28;20073;-69
2022/11/28 12:09:54;;;;;;;39.05;31.35;;;;;;;;;;9991739;28;20105;-69
2022/11/28 12:14:55;;;;;;;34.75;30.95;;;;;;;;;;9991451;28;20058;-69
2022/11/28 12:20:13;;;;;;;40.67;30.50;;;;;;;;;;9991160;28;20144;-69
2022/11/28 12:25:21;;;;;;;34.67;29.77;;;;;;;;;;9990266;28;20054;-69
2022/11/28 12:30:34;;;;;;;43.45;33.63;;;;;;;;;;9990166;28;20077;-69
2022/11/28 12:35:41;;;;;;;41.15;34.13;;;;;;;;;;9989112;28;20142;-69
2022/11/28 12:40:53;;;;;;;38.15;32.58;;;;;;;;;;9989054;28;20050;-69
2022/11/28 12:45:49;;;;;;;36.97;30.48;;;;;;;;;;9985984;28;20062;-68
2022/11/28 12:50:45;;;;;;;35.67;31.58;;;;;;;;;;9988296;28;20137;-68
2022/11/28 12:56:20;;;;;;;35.75;27.30;;;;;;;;;;9987048;28;20061;-68
2022/11/28 13:01:48;;;;;;;32.00;26.00;;;;;;;;;;9985211;28;20069;-68
2022/11/28 13:07:02;;;;;;;33.28;28.58;;;;;;;;;;9986336;28;20133;-68
2022/11/28 13:12:16;;;;;;;34.55;28.90;;;;;;;;;;9988335;28;20053;-68
2022/11/28 13:17:23;;;;;;;31.25;26.70;;;;;;;;;;9986819;28;20073;-68
2022/11/28 13:22:48;;;;;;;33.00;27.60;;;;;;;;;;9987297;28;20486;-65
2022/11/28 13:27:51;;;;;;;31.20;24.35;;;;;;;;;;9935554;28;20042;-65
2022/11/28 13:32:55;;;;;;;27.77;22.48;;;;;;;;;;9984060;28;20054;-65
2022/11/28 13:38:07;;;;;;;35.13;27.48;;;;;;;;;;9986719;28;20050;-64
2022/11/28 13:43:25;;;;;;;28.30;23.58;;;;;;;;;;9984051;28;20077;-64
2022/11/28 13:48:34;;;;;;;33.30;24.35;;;;;;;;;;9985591;28;20504;-65
2022/11/28 13:53:48;;;;;;;28.23;23.83;;;;;;;;;;9991785;28;20058;-64
2022/11/28 13:59:20;;;;;;;28.58;25.42;;;;;;;;;;9997871;28;20047;-65
2022/11/28 14:04:21;;;;;;;31.17;26.75;;;;;;;;;;9985213;28;20053;-65
2022/11/28 14:09:14;;;;;;;28.63;25.60;;;;;;;;;;9992100;28;20054;-65
2022/11/28 14:14:25;;;;;;;32.22;24.50;;;;;;;;;;9996468;28;20525;-65
2022/11/28 14:19:24;;;;;;;33.50;25.00;;;;;;;;;;9994606;28;20545;-65
2022/11/28 14:24:29;;;;;;;30.45;25.33;;;;;;;;;;9981366;28;20046;-66
2022/11/28 14:29:24;;;;;;;31.35;24.80;;;;;;;;;;9981012;28;20070;-65
2022/11/28 14:34:36;;;;;;;32.95;25.63;;;;;;;;;;9989731;28;20058;-64
2022/11/28 14:39:35;;;;;;;28.50;23.85;;;;;;;;;;9981984;28;20050;-65
2022/11/28 14:44:46;;;;;;;;;;;;;;;;;;9979698;28;20082;-63
2022/11/28 14:49:39;;;;;;;30.45;25.40;;;;;;;;;;9996373;28;20029;-66
2022/11/28 14:54:35;;;;;;;33.78;25.77;;;;;;;;;;9971377;28;20038;-65
2022/11/28 14:59:33;;;;;;;30.40;24.45;;;;;;;;;;9964604;28;20042;-65
2022/11/28 15:05:03;;;;;;;30.85;25.48;;;;;;;;;;9976359;28;20408;-65
2022/11/28 15:10:00;;;;;;;;;;;;;;;;;;9974991;28;20144;-63
2022/11/28 15:14:58;;;;;;;36.17;26.25;;;;;;;;;;9974656;28;19944;-65
2022/11/28 15:19:53;;;;;;;32.35;28.10;;;;;;;;;;9992037;28;20408;-65
2022/11/28 15:24:51;;;;;;;33.92;25.77;;;;;;;;;;9991377;28;20112;-65
2022/11/28 15:29:53;;;;;;;30.58;25.73;;;;;;;;;;9988365;28;20054;-65
2022/11/28 15:34:53;;;;;;;37.25;27.17;;;;;;;;;;9988846;28;20054;-66
2022/11/28 15:39:47;;;;;;;32.88;27.13;;;;;;;;;;9958005;28;20054;-65
2022/11/28 15:44:42;;;;;;;33.03;25.80;;;;;;;;;;9973656;28;20065;-66
2022/11/28 15:49:39;;;;;;;36.60;25.85;;;;;;;;;;9990908;28;20133;-67
2022/11/28 15:54:39;;;;;;;33.78;28.42;;;;;;;;;;9968818;28;20101;-65
2022/11/28 15:59:34;;;;;;;40.65;30.17;;;;;;;;;;9973241;28;20463;-65
2022/11/28 16:04:28;;;;;;;42.83;32.53;;;;;;;;;;9973378;28;20050;-65
2022/11/28 16:09:33;;;;;;;39.90;32.22;;;;;;;;;;9956766;28;20042;-64
2022/11/28 16:14:33;;;;;;;47.72;32.70;;;;;;;;;;9988278;28;20046;-65
2022/11/28 16:19:36;;;;;;;32.17;28.67;;;;;;;;;;9990543;28;20394;-65
2022/11/28 16:24:34;;;;;;;28.25;23.63;;;;;;;;;;9972103;28;20054;-64
2022/11/28 16:29:45;;;;;;;31.45;23.90;;;;;;;;;;9988234;28;20108;-64
2022/11/28 16:35:07;;;;;;;27.63;23.33;;;;;;;;;;9989039;28;20513;-65
2022/11/28 16:40:15;;;;;;;27.65;24.25;;;;;;;;;;9988375;28;20129;-65
2022/11/28 16:45:20;;;;;;;33.10;27.10;;;;;;;;;;9985684;28;20038;-65
2022/11/28 16:50:20;;;;;;;31.63;25.58;;;;;;;;;;9987933;28;20077;-65
2022/11/28 16:55:32;;;;;;;35.92;26.90;;;;;;;;;;9988690;28;20145;-65
2022/11/28 17:00:26;;;;;;;32.17;27.05;;;;;;;;;;9987119;28;20058;-65
2022/11/28 17:05:20;;;;;;;32.15;27.42;;;;;;;;;;9988159;28;20073;-65
2022/11/28 17:10:14;;;;;;;33.15;26.17;;;;;;;;;;9986209;28;20062;-65
2022/11/28 17:15:17;;;;;;;31.60;25.50;;;;;;;;;;9986951;28;20042;-65
2022/11/28 17:20:16;;;;;;;40.10;24.45;;;;;;;;;;9981385;28;20046;-65
2022/11/28 17:25:18;;;;;;;30.08;25.58;;;;;;;;;;9986957;28;20134;-65
2022/11/28 17:30:13;;;;;;;38.70;26.83;;;;;;;;;;9986043;28;20081;-65
2022/11/28 17:35:17;;;;;;;32.08;25.50;;;;;;;;;;9987321;28;20132;-65
2022/11/28 17:45:26;;;;;;;32.40;28.83;;;;;;;;;;9986198;28;20081;-66
2022/11/28 17:50:19;;;;;;;32.40;27.42;;;;;;;;;;9965647;28;20412;-66
2022/11/28 17:55:12;;;;;;;34.40;26.88;;;;;;;;;;9986229;28;20038;-66
2022/11/28 18:00:08;;;;;;;30.95;26.58;;;;;;;;;;9986249;28;20050;-66
2022/11/28 18:05:10;;;;;;;33.47;28.10;;;;;;;;;;9968936;28;20421;-66
2022/11/28 18:10:06;;;;;;;34.05;26.95;;;;;;;;;;9968738;28;20046;-67
2022/11/28 18:15:00;;;;;;;34.38;26.95;;;;;;;;;;9986242;28;20050;-66
2022/11/28 18:19:54;;;;;;;39.90;31.05;;;;;;;;;;9986292;28;20055;-66
2022/11/28 18:24:50;;;;;;;37.40;28.13;;;;;;;;;;9968515;28;20058;-67
2022/11/28 18:29:44;;;;;;;32.58;28.13;;;;;;;;;;9986462;28;20418;-66
2022/11/28 18:34:38;;;;;;;39.67;29.00;;;;;;;;;;9985533;28;20081;-66
2022/11/28 18:39:33;;;;;;;38.17;27.85;;;;;;;;;;9989726;28;20509;-66
2022/11/28 18:44:30;;;;;;;35.13;29.63;;;;;;;;;;9990908;28;20060;-64
2022/11/28 18:49:23;;;;;;;42.83;31.23;;;;;;;;;;9974870;28;20050;-65
2022/11/28 18:54:17;;;;;;;34.75;29.95;;;;;;;;;;9992297;28;20555;-65
2022/11/28 18:59:13;;;;;;;41.55;30.98;;;;;;;;;;9989719;28;20100;-65
2022/11/28 19:04:09;;;;;;;38.22;30.73;;;;;;;;;;9988415;28;20556;-64
2022/11/28 19:09:04;;;;;;;43.78;34.17;;;;;;;;;;9975288;28;20050;-65
2022/11/28 19:13:58;;;;;;;39.25;34.70;;;;;;;;;;9986470;28;20125;-70
2022/11/28 19:18:52;;;;;;;38.25;32.35;;;;;;;;;;9973118;28;20050;-63
2022/11/28 19:23:47;;;;;;;36.58;32.22;;;;;;;;;;9989218;28;20077;-63
2022/11/28 19:28:41;;;;;;;40.35;32.78;;;;;;;;;;9972278;28;20133;-63
2022/11/28 19:33:34;;;;;;;38.92;30.40;;;;;;;;;;9953859;28;20066;-63
2022/11/28 19:38:28;;;;;;;45.90;34.65;;;;;;;;;;9951986;28;20078;-64
2022/11/28 19:43:23;;;;;;;39.80;32.95;;;;;;;;;;9951693;28;20047;-64
2022/11/28 19:48:17;;;;;;;41.35;33.55;;;;;;;;;;9964595;28;20098;-64
2022/11/28 19:53:11;;;;;;;51.35;36.38;;;;;;;;;;9950913;28;20101;-63
2022/11/28 19:58:04;;;;;;;38.53;33.03;;;;;;;;;;9945739;28;20517;-64
2022/11/28 20:02:58;;;;;;;41.50;33.38;;;;;;;;;;9949786;28;20042;-63
2022/11/28 20:07:51;;;;;;;45.72;33.28;;;;;;;;;;9948639;28;20069;-63
2022/11/28 20:12:50;;;;;;;43.70;34.08;;;;;;;;;;9945520;28;20442;-62
2022/11/28 20:17:44;;;;;;;40.20;33.20;;;;;;;;;;9942529;28;20051;-63
2022/11/28 20:22:37;;;;;;;43.15;34.25;;;;;;;;;;9951046;28;20047;-63
2022/11/28 20:27:32;;;;;;;46.58;38.63;;;;;;;;;;9949471;28;20050;-63
2022/11/28 20:32:25;;;;;;;41.22;33.60;;;;;;;;;;9972422;28;20065;-63
2022/11/28 20:37:19;;;;;;;44.00;38.40;;;;;;;;;;9988905;28;20100;-63
2022/11/28 20:42:13;;;;;;;44.30;35.75;;;;;;;;;;9987515;28;20488;-63
2022/11/28 20:47:06;;;;;;;42.67;36.63;;;;;;;;;;9988350;28;20113;-63
2022/11/28 20:52:00;;;;;;;58.67;44.47;;;;;;;;;;9987247;28;20061;-63
2022/11/28 20:56:54;;;;;;;48.25;42.55;;;;;;;;;;9987978;28;20051;-63
2022/11/28 21:02:10;;;;;;;54.10;41.15;;;;;;;;;;9986109;28;20054;-63
2022/11/28 21:07:04;;;;;;;51.30;42.63;;;;;;;;;;9986397;28;20120;-63
2022/11/28 21:11:58;;;;;;;52.08;42.22;;;;;;;;;;9980654;28;20494;-64
2022/11/28 21:16:52;;;;;;;45.75;39.40;;;;;;;;;;9985782;28;20050;-65
2022/11/28 21:21:46;;;;;;;48.33;39.67;;;;;;;;;;9978237;28;20089;-64
2022/11/28 21:26:41;;;;;;;48.60;40.47;;;;;;;;;;9982763;28;20061;-63
2022/11/28 21:31:45;;;;;;;52.15;40.28;;;;;;;;;;9982955;28;20478;-63
2022/11/28 21:36:38;;;;;;;57.67;48.97;;;;;;;;;;9982368;28;20556;-64
2022/11/28 21:41:32;;;;;;;58.22;46.15;;;;;;;;;;9986204;28;20406;-64
2022/11/28 21:46:28;;;;;;;57.50;44.83;;;;;;;;;;9986651;28;20516;-64
2022/11/28 21:51:24;;;;;;;52.65;43.00;;;;;;;;;;9986726;28;20062;-63
2022/11/28 21:56:20;;;;;;;49.10;40.45;;;;;;;;;;9962347;28;20394;-64
2022/11/28 22:01:14;;;;;;;57.25;42.28;;;;;;;;;;9986550;28;20462;-63
2022/11/28 22:06:25;;;;;;;61.88;44.45;;;;;;;;;;9984436;28;20050;-64
2022/11/28 22:11:20;;;;;;;64.68;45.17;;;;;;;;;;9983211;28;20050;-65
2022/11/28 22:16:22;;;;;;;52.97;44.05;;;;;;;;;;9976165;28;20042;-64
2022/11/28 22:21:20;;;;;;;51.55;44.08;;;;;;;;;;9976274;28;20553;-64
2022/11/28 22:26:35;;;;;;;60.15;44.03;;;;;;;;;;9993192;28;20383;-64
2022/11/28 22:31:28;;;;;;;51.88;42.88;;;;;;;;;;9993020;28;20050;-64
2022/11/28 22:36:23;;;;;;;58.22;45.65;;;;;;;;;;9975895;28;20060;-64
2022/11/28 22:41:20;;;;;;;51.25;43.25;;;;;;;;;;9993431;28;20077;-64
2022/11/28 22:46:20;;;;;;;60.13;45.13;;;;;;;;;;9975981;28;20097;-64
2022/11/28 22:51:19;;;;;;;51.67;42.47;;;;;;;;;;9993269;28;20066;-64
2022/11/28 22:56:14;;;;;;;49.47;42.38;;;;;;;;;;9972345;28;20043;-64
2022/11/28 23:01:09;;;;;;;48.70;40.80;;;;;;;;;;9993671;28;20101;-64
2022/11/28 23:06:04;;;;;;;49.38;40.35;;;;;;;;;;9993852;28;20397;-64
2022/11/28 23:10:58;;;;;;;51.83;41.72;;;;;;;;;;9992545;28;20506;-64
2022/11/28 23:15:52;;;;;;;54.00;41.47;;;;;;;;;;9991881;28;20552;-64
2022/11/28 23:20:46;;;;;;;50.80;40.60;;;;;;;;;;9993047;28;20417;-64
2022/11/28 23:25:40;;;;;;;50.35;41.17;;;;;;;;;;9991515;28;20133;-64
2022/11/28 23:30:34;;;;;;;50.97;41.90;;;;;;;;;;9974985;28;20062;-64
2022/11/28 23:35:28;;;;;;;51.08;42.05;;;;;;;;;;9992706;28;20042;-64
2022/11/28 23:40:23;;;;;;;51.95;41.38;;;;;;;;;;9992477;28;20081;-64
2022/11/28 23:45:20;;;;;;;47.78;40.58;;;;;;;;;;9992308;28;20472;-64
2022/11/28 23:50:14;;;;;;;51.95;43.00;;;;;;;;;;9991900;28;20058;-63
2022/11/28 23:55:09;;;;;;;49.40;41.47;;;;;;;;;;9991228;28;20046;-63
